• Join FlightAware (Why Join?)
  • Login
  • US Flag 
04:20PM EDT


 

Airport Tracker/Info


-or-


 

Live Flight TrackerFlight Track Log ✈ DAL268 ✈ 22-Jun-2013 ✈ KSFO - KJFK

Flight Track Log - Related Links

Times and Time Zones

All times are in EDT time to prevent confusion due to time zone crossing. See the DAL268 flight status page for this flight to view local times or setup timezone preferences in your user account.

Time Position Orientation Groundspeed Altitude Reporting Facility
EDT Latitude Longitude Course Direction KTS MPH feet Rate Location/Type
02:19PM 37.6140 -122.3830 North 11 13  Level FlightAware
02:20PM 37.6140 -122.3820 90° East 13 15  Level FlightAware
02:21PM 37.6130 -122.3820 180° South 10 12  Level FlightAware
02:23PM 37.6861 -122.1250 67° East  Level FlightAware Approximate
02:24PM 37.7370 -121.9900 65° Northeast  Level FlightAware Approximate
02:32PM 37.6253 -122.3680 28° Northeast 160 184 300  Level FlightAware ADS-B
02:33PM 37.6307 -122.3650 24° Northeast 164 189 600 2,160 Climbing FlightAware ADS-B
02:33PM 37.6329 -122.3630 36° Northeast 168 193 700 1,500 Climbing FlightAware ADS-B
02:33PM 37.6358 -122.3610 29° Northeast 173 199 800 2,280 Climbing FlightAware ADS-B
02:33PM 37.6408 -122.3540 48° Northeast 177 204 1,200 2,340 Climbing FlightAware ADS-B
02:33PM 37.6492 -122.3430 46° Northeast 188 216 1,700 1,800 Climbing FlightAware ADS-B
02:33PM 37.6588 -122.3300 47° Northeast 209 241 2,100 1,380 Climbing FlightAware ADS-B
02:34PM 37.6698 -122.3160 45° Northeast 233 268 2,400 1,800 Climbing FlightAware ADS-B
02:34PM 37.6816 -122.3010 45° Northeast 244 281 3,000 2,100 Climbing FlightAware ADS-B
02:34PM 37.6965 -122.2820 45° Northeast 259 298 3,600 2,280 Climbing FlightAware ADS-B
02:34PM 37.7094 -122.2650 46° Northeast 266 306 4,300 3,000 Climbing FlightAware ADS-B
02:35PM 37.7255 -122.2430 47° Northeast 269 310 5,300 3,060 Climbing FlightAware ADS-B
02:35PM 37.7451 -122.2160 47° Northeast 276 318 6,400 2,880 Climbing FlightAware ADS-B
02:35PM 37.7509 -122.2040 59° Northeast 282 325 6,800 2,760 Climbing FlightAware ADS-B
02:35PM 37.7527 -122.1980 69° East 283 326 7,000 3,420 Climbing FlightAware ADS-B
02:35PM 37.7572 -122.1820 70° East 280 322 7,600 2,760 Climbing FlightAware ADS-B
02:36PM 37.7655 -122.1580 66° East 287 330 8,200 2,460 Climbing FlightAware ADS-B
02:36PM 37.7738 -122.1350 65° Northeast 291 335 8,900 2,700 Climbing FlightAware ADS-B
02:36PM 37.7787 -122.1210 66° East 294 338 9,300 2,700 Climbing FlightAware ADS-B
02:36PM 37.7862 -122.0970 68° East 296 341 10,000 2,100 Climbing FlightAware ADS-B
02:37PM 37.8001 -122.0460 71° East 316 364 10,900 1,560 Climbing FlightAware ADS-B
02:37PM 37.8146 -121.9900 72° East 344 396 11,600 1,140 Climbing FlightAware ADS-B
02:38PM 37.8314 -121.9260 72° East 369 425 12,100 1,200 Climbing FlightAware ADS-B
02:38PM 37.8502 -121.8560 71° East 401 461 12,900 1,800 Climbing FlightAware ADS-B
02:39PM 37.8684 -121.7880 71° East 411 473 14,000 2,100 Climbing FlightAware ADS-B
02:39PM 37.8871 -121.7180 71° East 420 483 15,000 1,920 Climbing FlightAware ADS-B
02:40PM 37.9063 -121.6460 71° East 427 491 16,000 2,040 Climbing FlightAware ADS-B
02:41PM 37.9252 -121.5670 73° East 433 498 17,200 2,040 Climbing FlightAware ADS-B
02:41PM 37.9417 -121.4890 75° East 439 505 18,200 1,740 Climbing FlightAware ADS-B
02:42PM 37.9600 -121.3930 76° East 447 514 19,300 1,620 Climbing FlightAware
02:42PM 37.9800 -121.2900 76° East 457 526 20,400 1,560 Climbing FlightAware
02:43PM 38.0000 -121.1790 77° East 466 536 21,500 1,500 Climbing FlightAware
02:44PM 38.0210 -121.0720 76° East 475 547 22,500 1,440 Climbing FlightAware
02:44PM 38.0430 -120.9520 77° East 486 559 23,500 1,320 Climbing FlightAware
02:45PM 38.0670 -120.8270 76° East 493 567 24,500 1,260 Climbing FlightAware
02:46PM 38.0870 -120.7190 77° East 500 575 25,300 1,200 Climbing FlightAware
02:47PM 38.1070 -120.6070 77° East 506 582 26,100 1,200 Climbing FlightAware
02:47PM 38.1320 -120.4710 77° East 515 593 27,000 1,320 Climbing FlightAware
02:48PM 38.1560 -120.3420 77° East 513 590 28,100 1,500 Climbing FlightAware
02:49PM 38.1780 -120.2210 77° East 508 585 29,200 1,500 Climbing FlightAware
02:49PM 38.2010 -120.0960 77° East 505 581 30,300 1,500 Climbing FlightAware
02:50PM 38.2280 -119.9440 77° East 501 577 31,600 1,440 Climbing FlightAware
02:51PM 38.2510 -119.8140 77° East 499 574 32,700 1,260 Climbing FlightAware
02:52PM 38.2720 -119.6930 77° East 498 573 33,500 1,080 Climbing FlightAware
02:52PM 38.2910 -119.5860 77° East 496 571 34,200 1,080 Climbing FlightAware
02:53PM 38.3130 -119.4610 77° East 493 567 35,000 1,020 Climbing FlightAware
02:54PM 38.3340 -119.3370 78° East 494 568 35,700 960 Climbing FlightAware
02:54PM 38.3520 -119.2340 77° East 494 568 36,300 900 Climbing FlightAware
02:55PM 38.3750 -119.1020 77° East 493 567 37,000 420 Climbing FlightAware
02:56PM 38.3950 -118.9840 78° East 493 567 37,000  Level FlightAware
02:57PM 38.4160 -118.8610 78° East 490 564 37,000  Level FlightAware
02:57PM 38.4350 -118.7470 78° East 491 565 37,000  Level FlightAware
02:59PM 38.4660 -118.5590 78° East 491 565 37,000  Level FlightAware
02:59PM 38.4870 -118.4310 78° East 492 566 37,000  Level FlightAware
03:00PM 38.5070 -118.3110 78° East 493 567 37,000  Level FlightAware
03:01PM 38.5270 -118.1900 78° East 494 568 37,000  Level FlightAware
03:01PM 38.5470 -118.0660 78° East 495 570 37,000  Level FlightAware
03:02PM 38.5660 -117.9500 78° East 495 570 37,000  Level FlightAware
03:03PM 38.5820 -117.8520 78° East 495 570 37,000  Level FlightAware
03:03PM 38.5960 -117.7650 78° East 495 570 37,000  Level FlightAware
03:04PM 38.6160 -117.6450 78° East 495 570 37,000  Level FlightAware
03:05PM 38.6310 -117.5550 78° East 495 570 37,000  Level FlightAware
03:06PM 38.6510 -117.4350 78° East 495 570 37,000  Level FlightAware
03:06PM 38.6650 -117.3480 78° East 495 570 37,000  Level FlightAware
03:07PM 38.6850 -117.2310 78° East 495 570 37,000  Level FlightAware
03:08PM 38.7000 -117.1400 78° East 495 570 37,000  Level FlightAware
03:08PM 38.7180 -117.0280 78° East 495 570 37,000  Level FlightAware
03:09PM 38.7330 -116.9400 78° East 495 570 37,000  Level FlightAware
03:10PM 38.7520 -116.8280 78° East 495 570 37,000  Level FlightAware
03:10PM 38.7660 -116.7420 78° East 495 570 37,000  Level FlightAware
03:11PM 38.7920 -116.5810 78° East 495 570 37,000  Level FlightAware
03:12PM 38.8070 -116.4930 78° East 495 570 37,000  Level FlightAware
03:13PM 38.8375 -116.1556 78° East 502 578 37,000  Level Oakland Center
03:14PM 38.8769 -115.8767 80° East 496 571 37,000  Level Salt Lake Center
03:15PM 38.9014 -115.6992 80° East 501 577 37,000  Level Salt Lake Center
03:16PM 38.9258 -115.5233 80° East 501 577 37,000  Level Salt Lake Center
03:17PM 38.9522 -115.3383 80° East 502 578 37,000  Level Salt Lake Center
03:18PM 38.9764 -115.1597 80° East 506 582 37,000  Level Salt Lake Center
03:19PM 39.0014 -114.9817 80° East 506 582 37,000  Level Salt Lake Center
03:20PM 39.0247 -114.8031 80° East 507 583 37,000  Level Salt Lake Center
03:21PM 39.0525 -114.5903 80° East 504 580 37,000  Level Salt Lake Center
03:22PM 39.0744 -114.4133 81° East 502 578 37,000  Level Salt Lake Center
03:23PM 39.0975 -114.2367 80° East 501 577 37,000  Level Salt Lake Center
03:24PM 39.1200 -114.0597 81° East 501 577 37,000  Level Salt Lake Center
03:30PM 39.2508 -112.9620 81° East 505 581 37,000  Level FlightAware ADS-B
03:31PM 39.2612 -112.8710 82° East 506 582 37,000  Level FlightAware ADS-B
03:31PM 39.2717 -112.7790 82° East 506 582 37,000  Level FlightAware ADS-B
03:32PM 39.2851 -112.6590 82° East 508 585 37,000  Level FlightAware ADS-B
03:33PM 39.2944 -112.5770 82° East 510 587 37,000  Level FlightAware ADS-B
03:33PM 39.3096 -112.4960 76° East 506 582 37,000  Level FlightAware ADS-B
03:33PM 39.3369 -112.4100 68° East 505 581 37,000  Level FlightAware ADS-B
03:34PM 39.3694 -112.3210 65° Northeast 504 580 37,000  Level FlightAware ADS-B
03:35PM 39.4003 -112.2380 64° Northeast 505 581 37,000  Level FlightAware ADS-B
03:35PM 39.4314 -112.1540 64° Northeast 506 582 37,000  Level FlightAware ADS-B
03:36PM 39.4621 -112.0710 64° Northeast 507 583 37,000  Level FlightAware ADS-B
03:36PM 39.4929 -111.9870 65° Northeast 507 583 37,000  Level FlightAware ADS-B
03:37PM 39.5231 -111.9040 65° Northeast 507 583 37,000  Level FlightAware ADS-B
03:37PM 39.5604 -111.8010 65° Northeast 509 586 37,000  Level FlightAware ADS-B
03:38PM 39.5917 -111.7140 65° Northeast 509 586 37,000  Level FlightAware ADS-B
03:38PM 39.6255 -111.6200 65° Northeast 510 587 37,000  Level FlightAware ADS-B
03:39PM 39.6557 -111.5360 65° Northeast 510 587 37,000  Level FlightAware ADS-B
03:39PM 39.6859 -111.4520 65° Northeast 511 588 37,000  Level FlightAware ADS-B
03:40PM 39.7168 -111.3650 65° Northeast 512 589 37,000  Level FlightAware ADS-B
03:40PM 39.7470 -111.2810 65° Northeast 512 589 37,000  Level FlightAware ADS-B
03:41PM 39.7793 -111.1890 65° Northeast 512 589 37,000  Level FlightAware ADS-B
03:41PM 39.8117 -111.0980 65° Northeast 511 588 37,000  Level FlightAware ADS-B
03:42PM 39.8462 -111.0000 65° Northeast 514 592 37,000  Level FlightAware ADS-B
03:43PM 39.8787 -110.9080 65° Northeast 515 593 37,000  Level FlightAware ADS-B
03:43PM 39.9227 -110.7820 65° Northeast 514 592 37,000  Level FlightAware ADS-B
03:44PM 39.9750 -110.6330 65° Northeast 513 590 37,000  Level FlightAware
03:45PM 40.0110 -110.5290 66° East 513 590 37,000  Level FlightAware
03:46PM 40.0520 -110.4100 66° East 513 590 37,000  Level FlightAware
03:46PM 40.0970 -110.2790 66° East 514 592 37,000  Level FlightAware
03:47PM 40.1580 -110.0840 68° East 514 592 37,000  Level FlightAware
03:48PM 40.1870 -109.9610 73° East 513 590 37,000  Level FlightAware
03:49PM 40.2150 -109.8350 74° East 511 588 37,000  Level FlightAware
03:50PM 40.2520 -109.6660 74° East 510 587 37,000  Level FlightAware
03:51PM 40.2820 -109.5300 74° East 511 588 37,000  Level FlightAware
03:51PM 40.3090 -109.4050 74° East 511 588 37,000  Level FlightAware
03:52PM 40.3340 -109.2870 74° East 510 587 37,000  Level FlightAware
03:53PM 40.3600 -109.1670 74° East 506 582 37,000  Level FlightAware
03:53PM 40.3890 -109.0330 74° East 507 583 37,000  Level FlightAware
03:54PM 40.4160 -108.9090 74° East 506 582 37,000  Level FlightAware
03:55PM 40.4410 -108.7880 75° East 506 582 37,000  Level FlightAware
03:55PM 40.4660 -108.6720 74° East 506 582 37,000  Level FlightAware
03:56PM 40.4940 -108.5370 75° East 503 579 37,000  Level FlightAware
03:57PM 40.5170 -108.4250 75° East 502 578 37,000  Level FlightAware
03:57PM 40.5430 -108.3020 74° East 501 577 37,000  Level FlightAware
03:58PM 40.5690 -108.1730 75° East 500 575 37,000  Level FlightAware
03:59PM 40.5950 -108.0490 75° East 498 573 37,000  Level FlightAware
04:00PM 40.6170 -107.9380 75° East 498 573 37,000  Level FlightAware
04:00PM 40.6450 -107.7990 75° East 496 571 37,000  Level FlightAware
04:01PM 40.6690 -107.6810 75° East 497 572 37,000  Level FlightAware
04:02PM 40.7010 -107.5240 75° East 497 572 37,000  Level FlightAware
04:03PM 40.7260 -107.3960 76° East 497 572 37,000  Level FlightAware
04:03PM 40.7500 -107.2730 76° East 496 571 37,000  Level FlightAware
04:04PM 40.7750 -107.1470 75° East 499 574 37,000  Level FlightAware
04:05PM 40.7980 -107.0300 75° East 502 578 37,000  Level FlightAware
04:05PM 40.8220 -106.9060 76° East 503 579 37,000  Level FlightAware
04:06PM 40.8470 -106.7740 76° East 505 581 37,000  Level FlightAware
04:07PM 40.8710 -106.6500 76° East 508 585 37,000  Level FlightAware
04:08PM 40.9030 -106.4800 76° East 511 588 37,000  Level FlightAware
04:08PM 40.9230 -106.3720 76° East 511 588 37,000  Level FlightAware
04:09PM 40.9520 -106.2200 76° East 515 593 37,000  Level FlightAware
04:10PM 40.9750 -106.0950 76° East 515 593 37,000  Level FlightAware
04:10PM 40.9940 -105.9910 76° East 518 596 37,000  Level FlightAware
04:11PM 41.0220 -105.8410 76° East 517 595 37,000  Level FlightAware
04:12PM 41.0450 -105.7100 77° East 520 598 37,000  Level FlightAware
04:13PM 41.0770 -105.5350 76° East 520 598 37,000  Level FlightAware
04:13PM 41.0930 -105.4470 76° East 518 596 37,000  Level FlightAware
04:14PM 41.1120 -105.3370 77° East 516 594 37,000  Level FlightAware
04:15PM 41.1380 -105.1890 77° East 512 589 37,000  Level FlightAware
04:16PM 41.1610 -105.0590 77° East 511 588 37,000  Level FlightAware
04:16PM 41.1666 -105.0280 76° East 510 587 37,000  Level FlightAware ADS-B
04:16PM 41.1826 -104.9370 77° East 508 585 37,000  Level FlightAware ADS-B
04:17PM 41.2017 -104.8270 77° East 507 583 37,000  Level FlightAware ADS-B
04:17PM 41.2210 -104.7320 75° East 509 586 37,000  Level FlightAware ADS-B
04:18PM 41.2417 -104.6430 73° East 509 586 37,000  Level FlightAware ADS-B
04:18PM 41.2629 -104.5530 73° East 511 588 37,000  Level FlightAware ADS-B
04:19PM 41.2874 -104.4490 73° East 512 589 37,000  Level FlightAware ADS-B
04:19PM 41.3088 -104.3580 73° East 513 590 37,000  Level FlightAware ADS-B
04:20PM 41.3299 -104.2670 73° East 514 592 37,000  Level FlightAware ADS-B
04:20PM 41.3509 -104.1770 73° East 512 589 37,000  Level FlightAware ADS-B
04:21PM 41.3719 -104.0860 73° East 511 588 37,000  Level FlightAware ADS-B
04:21PM 41.3932 -103.9940 73° East 511 588 37,000  Level FlightAware ADS-B
04:22PM 41.4140 -103.9030 73° East 510 587 37,000  Level FlightAware ADS-B
04:23PM 41.4388 -103.7950 73° East 510 587 37,000  Level FlightAware ADS-B
04:23PM 41.4602 -103.7010 73° East 510 587 37,000  Level FlightAware ADS-B
04:24PM 41.4812 -103.6070 73° East 511 588 37,000  Level FlightAware ADS-B
04:24PM 41.5027 -103.5120 73° East 509 586 37,000  Level FlightAware ADS-B
04:25PM 41.5231 -103.4210 73° East 508 585 37,000  Level FlightAware ADS-B
04:25PM 41.5433 -103.3310 73° East 508 585 37,000  Level FlightAware ADS-B
04:26PM 41.5633 -103.2410 73° East 508 585 37,000  Level FlightAware ADS-B
04:26PM 41.5846 -103.1450 73° East 507 583 37,000  Level FlightAware ADS-B
04:27PM 41.6049 -103.0530 74° East 507 583 37,000  Level FlightAware ADS-B
04:27PM 41.6251 -102.9610 74° East 505 581 37,000  Level FlightAware ADS-B
04:28PM 41.6448 -102.8710 74° East 505 581 37,000  Level FlightAware ADS-B
04:28PM 41.6769 -102.7240 74° East 504 580 37,000  Level FlightAware ADS-B
04:29PM 41.7105 -102.5680 74° East 503 579 37,000  Level FlightAware ADS-B
04:30PM 41.7470 -102.3980 74° East 502 578 37,000  Level FlightAware ADS-B
04:31PM 41.7665 -102.3060 74° East 500 575 37,000  Level FlightAware ADS-B
04:31PM 41.7866 -102.2110 74° East 500 575 37,000  Level FlightAware ADS-B
04:32PM 41.8069 -102.1150 74° East 499 574 37,000  Level FlightAware ADS-B
04:33PM 41.8317 -101.9980 74° East 498 573 37,000  Level FlightAware ADS-B
04:33PM 41.8512 -101.9040 74° East 497 572 37,000  Level FlightAware ADS-B
04:34PM 41.8747 -101.7910 74° East 497 572 37,000  Level FlightAware ADS-B
04:34PM 41.9024 -101.6570 74° East 497 572 37,000  Level FlightAware ADS-B
04:35PM 41.9217 -101.5736 74° East 497 572 37,000  Level Minneapolis Center
04:36PM 41.9553 -101.3964 76° East 494 568 37,000  Level Minneapolis Center
04:37PM 42.0019 -101.1733 74° East 493 567 37,000  Level Denver Center
04:38PM 42.0417 -100.9733 75° East 494 568 37,000  Level Denver Center
04:39PM 42.0750 -100.8028 75° East 492 566 37,000  Level Denver Center
04:40PM 42.1081 -100.6353 75° East 487 560 37,000  Level Denver Center
04:41PM 42.1467 -100.4350 75° East 492 566 37,000  Level Denver Center
04:42PM 42.1739 -100.2922 76° East 490 564 37,000  Level Minneapolis Center
04:43PM 42.2081 -100.1150 75° East 490 564 37,000  Level Minneapolis Center
04:44PM 42.2422 -99.9364 75° East 489 563 37,000  Level Minneapolis Center
04:45PM 42.2772 -99.7575 75° East 492 566 37,000  Level Minneapolis Center
04:46PM 42.3083 -99.5817 76° East 485 558 37,000  Level Minneapolis Center
04:47PM 42.3483 -99.3678 76° East 489 563 37,000  Level Minneapolis Center
04:48PM 42.3806 -99.1928 76° East 484 557 37,000  Level Minneapolis Center
04:49PM 42.4131 -99.0169 76° East 481 554 37,000  Level Minneapolis Center
04:51PM 42.4433 -98.8419 77° East 479 551 37,000  Level Minneapolis Center
04:52PM 42.4714 -98.6686 78° East 474 545 37,000  Level Minneapolis Center
04:53PM 42.4811 -98.4903 86° East 473 544 37,000  Level Minneapolis Center
04:54PM 42.4897 -98.3122 86° East 473 544 37,000  Level Minneapolis Center
04:55PM 42.4969 -98.1322 87° East 475 547 37,000  Level Minneapolis Center
04:56PM 42.5086 -97.9197 86° East 473 544 37,000  Level Minneapolis Center
04:57PM 42.5156 -97.7450 87° East 470 541 37,000  Level Minneapolis Center
04:58PM 42.5219 -97.5681 87° East 470 541 37,000  Level Minneapolis Center
04:59PM 42.5294 -97.3903 87° East 471 542 37,000  Level Minneapolis Center
05:00PM 42.5361 -97.2131 87° East 471 542 37,000  Level Minneapolis Center
05:01PM 42.5439 -97.0361 87° East 470 541 37,000  Level Minneapolis Center
05:02PM 42.5508 -96.8233 87° East 470 541 37,000  Level Minneapolis Center
05:03PM 42.5564 -96.6461 88° East 471 542 37,000  Level Minneapolis Center
05:04PM 42.5628 -96.4681 87° East 470 541 37,000  Level Minneapolis Center
05:05PM 42.5436 -96.2961 99° East 464 534 37,000  Level Minneapolis Center
05:10PM 42.3840 -95.4230 99° East 450 518 37,000  Level FlightAware
05:11PM 42.3910 -95.2790 86° East 465 535 37,000  Level FlightAware
05:12PM 42.4000 -95.1100 86° East 465 535 37,000  Level FlightAware
05:13PM 42.4070 -94.9590 86° East 465 535 37,000  Level FlightAware
05:14PM 42.4120 -94.8700 86° East 465 535 37,000  Level FlightAware
05:14PM 42.4180 -94.7540 86° East 465 535 37,000  Level FlightAware
05:15PM 42.4220 -94.6650 86° East 465 535 37,000  Level FlightAware
05:16PM 42.4290 -94.5440 85° East 465 535 37,000  Level FlightAware
05:16PM 42.4300 -94.3260 90° East 470 541 37,000  Level FlightAware
05:17PM 42.4330 -94.2270 88° East 469 540 37,000  Level FlightAware
05:18PM 42.4390 -94.0810 87° East 469 540 37,000  Level FlightAware
05:19PM 42.4430 -93.9630 87° East 470 541 37,000  Level FlightAware
05:19PM 42.4480 -93.8390 87° East 471 542 37,000  Level FlightAware
05:20PM 42.4510 -93.7360 88° East 472 543 37,000  Level FlightAware
05:21PM 42.4560 -93.5880 87° East 472 543 37,000  Level FlightAware
05:21PM 42.4600 -93.4680 87° East 472 543 37,000  Level FlightAware
05:22PM 42.4640 -93.3400 88° East 472 543 37,000  Level FlightAware
05:23PM 42.4670 -93.2330 88° East 471 542 37,000  Level FlightAware
05:23PM 42.4710 -93.0970 88° East 470 541 37,000  Level FlightAware
05:24PM 42.4740 -92.9700 88° East 469 540 37,000  Level FlightAware
05:25PM 42.4770 -92.8630 88° East 469 540 37,000  Level FlightAware
05:26PM 42.4800 -92.7240 88° East 468 539 37,000  Level FlightAware
05:26PM 42.4830 -92.6060 88° East 467 537 37,000  Level FlightAware
05:27PM 42.4860 -92.4920 88° East 467 537 37,000  Level FlightAware
05:28PM 42.4890 -92.3590 88° East 466 536 37,000  Level FlightAware
05:28PM 42.4910 -92.2400 89° East 464 534 37,000  Level FlightAware
05:29PM 42.4940 -92.1390 88° East 462 532 37,000  Level FlightAware
05:30PM 42.4960 -92.0000 89° East 461 531 37,000  Level FlightAware
05:30PM 42.4980 -91.8830 89° East 460 529 37,000  Level FlightAware
05:31PM 42.5000 -91.7690 89° East 460 529 37,000  Level FlightAware
05:32PM 42.5020 -91.6460 89° East 461 531 37,000  Level FlightAware
05:33PM 42.5040 -91.5060 89° East 463 533 37,000  Level FlightAware
05:33PM 42.5060 -91.3980 89° East 463 533 37,000  Level FlightAware
05:34PM 42.5070 -91.2880 89° East 463 533 37,000  Level FlightAware
05:35PM 42.5090 -91.1630 89° East 462 532 37,000  Level FlightAware
05:35PM 42.5100 -91.0330 89° East 462 532 37,000  Level FlightAware
05:36PM 42.5110 -90.9060 89° East 463 533 37,000  Level FlightAware
05:37PM 42.5120 -90.7870 89° East 462 532 37,000  Level FlightAware
05:37PM 42.5130 -90.6740 89° East 462 532 37,000  Level FlightAware
05:38PM 42.5140 -90.5430 89° East 460 529 37,000  Level FlightAware
05:39PM 42.5140 -90.4170 90° East 458 527 37,000  Level FlightAware
05:39PM 42.5150 -90.3130 89° East 458 527 37,000  Level FlightAware
05:40PM 42.5150 -90.1870 90° East 459 528 37,000  Level FlightAware
05:41PM 42.5150 -90.0550 90° East 460 529 37,000  Level FlightAware
05:42PM 42.5160 -89.9480 89° East 459 528 37,000  Level FlightAware
05:42PM 42.5160 -89.8270 90° East 460 529 37,000  Level FlightAware
05:43PM 42.5150 -89.6930 91° East 461 531 37,000  Level FlightAware
05:44PM 42.5150 -89.5810 90° East 460 529 37,000  Level FlightAware
05:44PM 42.5150 -89.4650 90° East 462 532 37,000  Level FlightAware
05:45PM 42.5140 -89.3410 91° East 464 534 37,000  Level FlightAware
05:46PM 42.5140 -89.2080 90° East 464 534 37,000  Level FlightAware
05:47PM 42.5130 -89.0880 91° East 462 532 37,000  Level FlightAware
05:47PM 42.5120 -88.9780 91° East 461 531 37,000  Level FlightAware
05:48PM 42.5110 -88.8570 91° East 461 531 37,000  Level FlightAware
05:49PM 42.5100 -88.7250 91° East 460 529 37,000  Level FlightAware
05:49PM 42.5080 -88.6110 91° East 461 531 37,000  Level FlightAware
05:50PM 42.5070 -88.4880 91° East 462 532 37,000  Level FlightAware
05:51PM 42.5050 -88.3660 91° East 462 532 37,000  Level FlightAware
05:51PM 42.5040 -88.2480 91° East 461 531 37,000  Level FlightAware
05:52PM 42.5020 -88.1260 91° East 462 532 37,000  Level FlightAware
05:53PM 42.5000 -88.0040 91° East 464 534 37,000  Level FlightAware
05:54PM 42.5000 -87.8810 90° East 466 536 37,000  Level FlightAware
05:54PM 42.5000 -87.7630 90° East 467 537 37,000  Level FlightAware
05:55PM 42.5000 -87.6430 90° East 469 540 37,000  Level FlightAware
05:56PM 42.4990 -87.5060 91° East 471 542 37,000  Level FlightAware
05:56PM 42.4990 -87.3840 90° East 472 543 37,000  Level FlightAware
05:57PM 42.4980 -87.2800 91° East 473 544 37,000  Level FlightAware
05:58PM 42.4970 -87.1500 91° East 475 547 37,000  Level FlightAware
05:58PM 42.4960 -87.0070 90° East 477 549 37,000  Level FlightAware
05:59PM 42.4950 -86.8960 91° East 479 551 37,000  Level FlightAware
06:00PM 42.4940 -86.7660 91° East 479 551 37,000  Level FlightAware
06:01PM 42.4920 -86.6390 91° East 477 549 37,000  Level FlightAware
06:01PM 42.4910 -86.5110 91° East 474 545 37,000  Level FlightAware
06:02PM 42.4890 -86.3860 91° East 471 542 37,000  Level FlightAware
06:03PM 42.4880 -86.2750 91° East 469 540 37,000  Level FlightAware
06:03PM 42.4850 -86.1360 92° East 467 537 37,000  Level FlightAware
06:04PM 42.4940 -86.0190 84° East 472 543 37,000  Level FlightAware
06:05PM 42.5170 -85.9100 74° East 473 544 37,000  Level FlightAware
06:05PM 42.5440 -85.7810 74° East 472 543 37,000  Level FlightAware
06:06PM 42.5690 -85.6570 75° East 472 543 37,000  Level FlightAware
06:07PM 42.5910 -85.5530 74° East 471 542 37,000  Level FlightAware
06:08PM 42.6190 -85.4150 75° East 471 542 37,000  Level FlightAware
06:08PM 42.6430 -85.2970 75° East 472 543 37,000  Level FlightAware
06:09PM 42.6670 -85.1780 75° East 471 542 37,000  Level FlightAware
06:10PM 42.6910 -85.0580 75° East 472 543 37,000  Level FlightAware
06:10PM 42.7130 -84.9430 75° East 471 542 37,000  Level FlightAware
06:11PM 42.7240 -84.8890 74° East 470 541 37,000  Level FlightAware
06:12PM 42.7560 -84.7250 75° East 471 542 37,000  Level FlightAware
06:12PM 42.7810 -84.5980 75° East 470 541 37,000  Level FlightAware
06:13PM 42.8060 -84.4690 75° East 469 540 37,000  Level FlightAware
06:14PM 42.8270 -84.3500 76° East 467 537 37,000  Level FlightAware
06:14PM 42.8460 -84.2350 77° East 465 535 37,000  Level FlightAware
06:15PM 42.8620 -84.1200 79° East 466 536 37,000  Level FlightAware
06:16PM 42.8810 -83.9900 79° East 466 536 37,000  Level FlightAware
06:17PM 42.8980 -83.8750 79° East 466 536 37,000  Level FlightAware
06:17PM 42.9130 -83.7660 79° East 467 537 37,000  Level FlightAware
06:18PM 42.9100 -83.5940 91° East 471 542 37,000  Level FlightAware
06:19PM 42.9030 -83.4640 94° East 470 541 37,000  Level FlightAware
06:20PM 42.8880 -83.3490 100° East 469 540 37,000  Level FlightAware
06:20PM 42.8690 -83.2180 101° East 470 541 37,000  Level FlightAware
06:21PM 42.8520 -83.1020 101° East 469 540 37,000  Level FlightAware
06:22PM 42.8340 -82.9820 102° East 470 541 37,000  Level FlightAware
06:22PM 42.8170 -82.8650 101° East 471 542 37,000  Level FlightAware
06:23PM 42.7970 -82.7320 102° East 470 541 37,000  Level FlightAware
06:24PM 42.7800 -82.6240 102° East 470 541 37,000  Level FlightAware
06:25PM 42.7590 -82.4880 102° East 471 542 37,000  Level FlightAware
06:25PM 42.7420 -82.3740 101° East 474 545 37,000  Level FlightAware
06:26PM 42.7270 -82.2750 102° East 474 545 37,000  Level FlightAware
06:27PM 42.7070 -82.1490 102° East 475 547 37,000  Level FlightAware
06:27PM 42.6880 -82.0300 102° East 474 545 37,000  Level FlightAware
06:28PM 42.6670 -81.8970 102° East 474 545 37,000  Level FlightAware
06:29PM 42.6470 -81.7740 102° East 476 548 37,000  Level FlightAware
06:29PM 42.6280 -81.6530 102° East 475 547 37,000  Level FlightAware
06:30PM 42.6080 -81.5300 102° East 475 547 37,000  Level FlightAware
06:31PM 42.5880 -81.4100 103° East 476 548 37,000  Level FlightAware
06:31PM 42.5700 -81.3030 103° East 475 547 37,000  Level FlightAware
06:32PM 42.5500 -81.1800 102° East 473 544 37,000  Level FlightAware
06:33PM 42.5300 -81.0600 103° East 473 544 37,000  Level FlightAware
06:34PM 42.5100 -80.9400 103° East 473 544 37,000  Level FlightAware
06:34PM 42.4890 -80.8180 103° East 474 545 37,000  Level FlightAware
06:35PM 42.4650 -80.6730 103° East 474 545 37,000  Level FlightAware
06:36PM 42.4460 -80.5660 103° East 474 545 37,000  Level FlightAware
06:36PM 42.4270 -80.4520 103° East 474 545 37,000  Level FlightAware
06:37PM 42.4000 -80.2990 103° East 474 545 37,000  Level FlightAware
06:38PM 42.3780 -80.1720 103° East 472 543 37,000  Level FlightAware
06:38PM 42.3580 -80.0590 103° East 472 543 37,000  Level FlightAware
06:39PM 42.3370 -79.9360 103° East 471 542 37,000  Level FlightAware
06:40PM 42.3160 -79.8220 104° East 471 542 37,000  Level FlightAware
06:41PM 42.2940 -79.6970 103° East 471 542 37,000  Level FlightAware
06:41PM 42.2730 -79.5830 104° East 469 540 37,000  Level FlightAware
06:42PM 42.2510 -79.4590 103° East 465 535 37,000  Level FlightAware
06:43PM 42.2290 -79.3430 104° East 462 532 37,000  Level FlightAware
06:43PM 42.2070 -79.2220 104° East 459 528 37,000  Level FlightAware
06:44PM 42.1860 -79.1130 105° East 457 526 37,000  Level FlightAware
06:45PM 42.1560 -78.9910 108° East 457 526 37,000  Level FlightAware
06:46PM 42.1280 -78.8780 108° East 459 528 37,000  Level FlightAware
06:46PM 42.1040 -78.7830 109° East 460 529 37,000  Level FlightAware
06:47PM 42.0720 -78.6540 108° East 463 533 37,000  Level FlightAware
06:48PM 42.0430 -78.5430 109° East 464 534 37,000  Level FlightAware
06:48PM 42.0120 -78.4210 109° East 467 537 37,000  Level FlightAware
06:49PM 41.9840 -78.3120 109° East 469 540 37,000  Level FlightAware
06:50PM 41.9560 -78.2020 109° East 470 541 37,000  Level FlightAware
06:50PM 41.9240 -78.0800 109° East 472 543 37,000  Level FlightAware
06:51PM 41.8930 -77.9580 109° East 473 544 37,000  Level FlightAware
06:52PM 41.8640 -77.8500 110° East 473 544 37,000  Level FlightAware
06:52PM 41.8330 -77.7320 109° East 474 545 37,000  Level FlightAware
06:53PM 41.8030 -77.6150 109° East 474 545 37,000  Level FlightAware
06:54PM 41.7710 -77.4960 110° East 475 547 37,000  Level FlightAware
06:55PM 41.7400 -77.3780 109° East 472 543 37,000  Level FlightAware
06:55PM 41.7090 -77.2640 110° East 464 534 37,000  Level FlightAware
06:56PM 41.6800 -77.1550 110° East 461 531 37,000  Level FlightAware
06:57PM 41.6530 -77.0550 110° East 458 527 37,000 -480 Level FlightAware
06:57PM 41.6230 -76.9440 110° East 462 532 36,400 -1,020 Descending FlightAware
06:58PM 41.6076 -76.8889 110° East 465 535 36,000 -1,380 Descending FlightAware ADS-B
06:58PM 41.5850 -76.8062 110° East 468 539 35,300 -1,500 Descending FlightAware ADS-B
06:59PM 41.5584 -76.7092 110° East 474 545 34,400 -1,440 Descending FlightAware ADS-B
06:59PM 41.5302 -76.6066 110° East 477 549 33,600 -1,260 Descending FlightAware ADS-B
07:00PM 41.5064 -76.5205 110° East 479 551 33,000 -1,500 Descending FlightAware ADS-B
07:01PM 41.4781 -76.4186 110° East 485 558 31,900 -1,680 Descending FlightAware ADS-B
07:01PM 41.4541 -76.3319 110° East 495 570 31,100 -900 Descending FlightAware ADS-B
07:02PM 41.4301 -76.2456 110° East 494 568 31,000 -300 Descending FlightAware ADS-B
07:02PM 41.4062 -76.1603 110° East 492 566 30,800 -1,080 Descending FlightAware ADS-B
07:03PM 41.3809 -76.0702 110° East 491 565 29,900 -2,400 Descending FlightAware ADS-B
07:03PM 41.3558 -75.9813 111° Southeast 493 567 28,300 -3,600 Descending FlightAware ADS-B
07:04PM 41.3314 -75.8953 111° Southeast 499 574 26,300 -3,660 Descending FlightAware ADS-B
07:04PM 41.3069 -75.8088 111° Southeast 499 574 24,600 -2,760 Descending FlightAware ADS-B
07:05PM 41.2816 -75.7210 111° Southeast 484 557 23,500 -1,560 Descending FlightAware ADS-B
07:05PM 41.2545 -75.6344 113° Southeast 475 547 23,000 -480 Descending FlightAware ADS-B
07:06PM 41.2255 -75.5469 114° Southeast 477 549 23,000  Level FlightAware ADS-B
07:06PM 41.1984 -75.4661 114° Southeast 472 543 23,000  Level FlightAware ADS-B
07:07PM 41.1722 -75.3883 114° Southeast 453 521 23,000  Level FlightAware ADS-B
07:07PM 41.1455 -75.3093 114° Southeast 450 518 23,000  Level FlightAware ADS-B
07:08PM 41.1192 -75.2312 114° Southeast 451 519 23,000  Level FlightAware ADS-B
07:08PM 41.0932 -75.1542 114° Southeast 453 521 23,000  Level FlightAware ADS-B
07:09PM 41.0665 -75.0756 114° Southeast 452 520 23,000  Level FlightAware ADS-B
07:09PM 41.0406 -74.9997 114° Southeast 452 520 23,000  Level FlightAware ADS-B
07:10PM 41.0126 -74.9173 114° Southeast 452 520 23,000  Level FlightAware ADS-B
07:10PM 40.9984 -74.8630 109° East 451 519 23,000  Level FlightAware ADS-B
07:10PM 40.9978 -74.8604 107° East 452 520 23,000 -900 Level FlightAware ADS-B
07:10PM 40.9892 -74.8080 102° East 446 513 22,700 -1,260 Descending FlightAware ADS-B
07:11PM 40.9861 -74.7834 99° East 444 511 22,400 -2,100 Descending FlightAware ADS-B
07:11PM 40.9771 -74.7014 98° East 438 504 21,300 -2,220 Descending FlightAware ADS-B
07:12PM 40.9685 -74.6179 98° East 432 497 20,100 -2,280 Descending FlightAware ADS-B
07:12PM 40.9662 -74.5965 98° East 430 495 19,800 -2,040 Descending FlightAware ADS-B
07:12PM 40.9602 -74.5402 98° East 422 486 19,100 -960 Descending FlightAware ADS-B
07:13PM 40.9519 -74.4634 98° East 388 447 19,000 -120 Descending FlightAware ADS-B
07:13PM 40.9442 -74.3938 98° East 362 417 19,000  Level FlightAware ADS-B
07:14PM 40.9358 -74.3193 98° East 358 412 19,000  Level FlightAware ADS-B
07:14PM 40.9283 -74.2528 98° East 358 412 19,000  Level FlightAware ADS-B
07:15PM 40.9203 -74.1833 99° East 360 414 19,000 -180 Level FlightAware ADS-B
07:15PM 40.9167 -74.1612 102° East 359 413 18,900 -780 Descending FlightAware ADS-B
07:15PM 40.9138 -74.1501 109° East 357 411 18,800 -1,320 Descending FlightAware ADS-B
07:15PM 40.9029 -74.1252 120° Southeast 350 403 18,500 -1,200 Descending FlightAware ADS-B
07:15PM 40.8965 -74.1152 130° Southeast 347 399 18,400 -1,500 Descending FlightAware ADS-B
07:16PM 40.8839 -74.1013 140° Southeast 343 395 18,100 -1,800 Descending FlightAware ADS-B
07:16PM 40.8741 -74.0938 150° Southeast 340 391 17,900 -1,740 Descending FlightAware ADS-B
07:16PM 40.8291 -74.0736 161° South 335 386 17,000 -1,680 Descending FlightAware ADS-B
07:17PM 40.7847 -74.0553 163° South 334 384 16,200 -1,560 Descending FlightAware ADS-B
07:17PM 40.7649 -74.0472 163° South 334 384 15,900 -840 Descending FlightAware ADS-B
07:17PM 40.7392 -74.0369 163° South 339 390 15,800 -900 Descending FlightAware ADS-B
07:18PM 40.6930 -74.0188 163° South 333 383 15,200 -1,260 Descending FlightAware ADS-B
07:18PM 40.6468 -74.0005 163° South 327 376 14,500 -1,380 Descending FlightAware ADS-B
07:19PM 40.5852 -73.9761 163° South 322 371 13,500 -1,440 Descending FlightAware ADS-B
07:20PM 40.5410 -73.9568 162° South 322 371 12,700 -1,380 Descending FlightAware ADS-B
07:20PM 40.5265 -73.9431 144° Southeast 320 368 12,500 -1,080 Descending FlightAware ADS-B
07:20PM 40.5214 -73.9369 137° Southeast 320 368 12,400 -1,560 Descending FlightAware ADS-B
07:20PM 40.4898 -73.8957 135° Southeast 317 365 11,600 -1,440 Descending FlightAware ADS-B
07:21PM 40.4590 -73.8549 135° Southeast 313 360 11,000 -1,440 Descending FlightAware ADS-B
07:21PM 40.4282 -73.8156 136° Southeast 304 350 10,200 -1,920 Descending FlightAware ADS-B
07:22PM 40.4128 -73.7963 136° Southeast 301 346 9,600 -2,340 Descending FlightAware ADS-B
07:22PM 40.3968 -73.7764 137° Southeast 298 343 9,000 -2,400 Descending FlightAware ADS-B
07:22PM 40.3796 -73.7547 136° Southeast 296 341 8,300 -2,340 Descending FlightAware ADS-B
07:22PM 40.3637 -73.7341 135° Southeast 295 339 7,700 -2,280 Descending FlightAware ADS-B
07:23PM 40.3448 -73.7068 132° Southeast 295 339 6,900 -2,280 Descending FlightAware ADS-B
07:23PM 40.3386 -73.6883 114° Southeast 294 338 6,500 -1,860 Descending FlightAware ADS-B
07:23PM 40.3370 -73.6643 95° East 291 335 6,100 -1,620 Descending FlightAware ADS-B
07:23PM 40.3375 -73.6429 88° East 289 333 5,800 -1,680 Descending FlightAware ADS-B
07:24PM 40.3548 -73.6010 62° Northeast 279 321 5,000 -1,500 Descending FlightAware ADS-B
07:25PM 40.3970 -73.5690 30° Northeast 275 316 4,100 -1,080 Descending FlightAware
07:25PM 40.4290 -73.5470 28° Northeast 272 313 3,800 -360 Descending FlightAware
07:25PM 40.4590 -73.5380 13° North 269 310 3,800  Level FlightAware
07:26PM 40.4990 -73.5290 10° North 268 308 3,800  Level FlightAware
07:26PM 40.5300 -73.5220 10° North 266 306 3,800 -180 Level FlightAware
07:27PM 40.5420 -73.5200 North 262 302 3,700 -1,260 Descending FlightAware
07:27PM 40.5820 -73.5280 351° North 263 303 2,900 -1,200 Descending FlightAware
07:27PM 40.5970 -73.5320 349° North 268 308 2,800 -180 Descending FlightAware
07:28PM 40.6310 -73.5410 349° North 262 302 2,800  Level FlightAware
07:28PM 40.6620 -73.5490 349° North 238 274 2,800 -360 Level FlightAware
07:29PM 40.6920 -73.5570 349° North 227 261 2,500 -720 Descending FlightAware
07:29PM 40.7080 -73.5600 352° North 225 259 2,300 -960 Descending FlightAware
07:29PM 40.7360 -73.5710 343° North 224 258 1,800 -780 Descending FlightAware
07:30PM 40.7460 -73.5840 315° West 223 257 1,800  Level FlightAware
07:30PM 40.7620 -73.6090 310° West 222 255 1,800  Level FlightAware
07:31PM 40.7770 -73.6430 300° West 215 247 1,800  Level FlightAware
07:31PM 40.7650 -73.6690 239° Southwest 201 231 1,800  Level FlightAware
07:31PM 40.7420 -73.6820 203° Southwest 174 200 1,800 -300 Level FlightAware
07:32PM 40.7200 -73.6970 207° Southwest 170 196 1,500 -780 Descending FlightAware
07:32PM 40.7020 -73.7100 209° Southwest 141 162 1,100 -780 Descending FlightAware
07:33PM 40.6870 -73.7220 211° Southwest 118 136 800 -600 Descending FlightAware
07:33PM 40.6820 -73.7260 211° Southwest 120 138 700 -600 Descending FlightAware
07:34PM 40.6680 -73.7370 211° Southwest 126 145 400 -720 Descending FlightAware
07:34PM 40.6602 -73.7432 211° Southwest 131 151 200 -900 Descending FlightAware ADS-B
07:35PM 40.6390 -73.7600 211° Southwest 129 148 -300 Descending FlightAware
07:35PM 40.6340 -73.7640 211° Southwest 86 99  Level FlightAware
07:35PM 40.6300 -73.7680 217° Southwest 20 23  Level FlightAware
07:35PM 40.6290 -73.7690 217° Southwest 15 17  Level FlightAware
07:36PM 40.6300 -73.7700 323° Northwest 17 20  Level FlightAware
07:36PM 40.6320 -73.7700 360° North 18 21  Level FlightAware